sensor_id;sensor_type;location;lat;lon;timestamp;P1;P2;P0
46302;PMS7003;32029;51.358;5.628;2024-02-16T00:00:12;6.00;6.00;5.00
46302;PMS7003;32029;51.358;5.628;2024-02-16T00:02:40;8.33;7.33;5.00
46302;PMS7003;32029;51.358;5.628;2024-02-16T00:05:11;3.40;3.40;1.80
46302;PMS7003;32029;51.358;5.628;2024-02-16T00:07:39;7.80;7.40;6.20
46302;PMS7003;32029;51.358;5.628;2024-02-16T00:10:06;2.33;2.00;2.00
46302;PMS7003;32029;51.358;5.628;2024-02-16T00:12:36;6.40;6.00;5.00
46302;PMS7003;32029;51.358;5.628;2024-02-16T00:15:04;5.00;5.00;4.00
46302;PMS7003;32029;51.358;5.628;2024-02-16T00:17:33;7.40;6.80;5.00
46302;PMS7003;32029;51.358;5.628;2024-02-16T00:20:01;6.60;5.40;5.40
46302;PMS7003;32029;51.358;5.628;2024-02-16T00:22:29;7.60;5.60;4.80
46302;PMS7003;32029;51.358;5.628;2024-02-16T00:24:56;6.33;5.00;5.00
46302;PMS7003;32029;51.358;5.628;2024-02-16T00:27:24;7.40;4.60;4.00
46302;PMS7003;32029;51.358;5.628;2024-02-16T00:29:51;5.80;5.80;4.80
46302;PMS7003;32029;51.358;5.628;2024-02-16T00:32:18;8.00;6.00;4.00
46302;PMS7003;32029;51.358;5.628;2024-02-16T00:34:45;10.00;8.00;6.00
46302;PMS7003;32029;51.358;5.628;2024-02-16T00:37:13;6.00;6.00;5.00
46302;PMS7003;32029;51.358;5.628;2024-02-16T00:39:41;5.80;5.80;5.20
46302;PMS7003;32029;51.358;5.628;2024-02-16T00:42:08;6.00;6.00;5.00
46302;PMS7003;32029;51.358;5.628;2024-02-16T00:44:35;5.00;5.00;4.00
46302;PMS7003;32029;51.358;5.628;2024-02-16T00:47:03;5.80;5.80;5.00
46302;PMS7003;32029;51.358;5.628;2024-02-16T00:49:33;6.60;5.40;4.40
46302;PMS7003;32029;51.358;5.628;2024-02-16T00:52:01;7.60;6.00;5.00
46302;PMS7003;32029;51.358;5.628;2024-02-16T00:54:28;7.67;5.67;4.67
46302;PMS7003;32029;51.358;5.628;2024-02-16T00:56:56;5.40;5.40;5.00
46302;PMS7003;32029;51.358;5.628;2024-02-16T00:59:29;5.40;5.40;4.20
46302;PMS7003;32029;51.358;5.628;2024-02-16T01:01:56;5.67;5.67;4.33
46302;PMS7003;32029;51.358;5.628;2024-02-16T01:04:23;5.40;4.80;3.00
46302;PMS7003;32029;51.358;5.628;2024-02-16T01:06:51;4.60;4.00;4.00
46302;PMS7003;32029;51.358;5.628;2024-02-16T01:09:18;6.00;4.67;4.00
46302;PMS7003;32029;51.358;5.628;2024-02-16T01:11:46;7.00;6.00;5.00
46302;PMS7003;32029;51.358;5.628;2024-02-16T01:14:14;6.80;5.00;4.00
46302;PMS7003;32029;51.358;5.628;2024-02-16T01:16:42;7.20;6.80;4.60
46302;PMS7003;32029;51.358;5.628;2024-02-16T01:19:10;5.00;5.00;4.00
46302;PMS7003;32029;51.358;5.628;2024-02-16T01:21:38;5.20;5.00;5.00
46302;PMS7003;32029;51.358;5.628;2024-02-16T01:24:08;5.00;5.00;4.00
46302;PMS7003;32029;51.358;5.628;2024-02-16T01:26:36;8.80;5.40;4.40
46302;PMS7003;32029;51.358;5.628;2024-02-16T01:29:04;7.40;6.00;5.00
46302;PMS7003;32029;51.358;5.628;2024-02-16T01:31:32;6.00;4.80;4.80
46302;PMS7003;32029;51.358;5.628;2024-02-16T01:34:00;6.00;6.00;4.60
46302;PMS7003;32029;51.358;5.628;2024-02-16T01:36:28;7.20;5.00;5.00
46302;PMS7003;32029;51.358;5.628;2024-02-16T01:38:56;8.00;7.00;5.00
46302;PMS7003;32029;51.358;5.628;2024-02-16T01:41:24;7.60;7.60;6.00
46302;PMS7003;32029;51.358;5.628;2024-02-16T01:43:52;9.20;5.80;5.60
46302;PMS7003;32029;51.358;5.628;2024-02-16T01:46:22;6.20;6.20;5.40
46302;PMS7003;32029;51.358;5.628;2024-02-16T01:48:49;5.67;5.67;5.67
46302;PMS7003;32029;51.358;5.628;2024-02-16T01:51:16;4.67;4.67;3.67
46302;PMS7003;32029;51.358;5.628;2024-02-16T01:53:44;6.00;5.40;4.80
46302;PMS7003;32029;51.358;5.628;2024-02-16T01:56:13;7.00;7.00;5.60
46302;PMS7003;32029;51.358;5.628;2024-02-16T01:58:40;5.00;5.00;4.00
46302;PMS7003;32029;51.358;5.628;2024-02-16T02:01:08;8.40;5.80;5.00
46302;PMS7003;32029;51.358;5.628;2024-02-16T02:03:34;5.67;5.67;5.00
46302;PMS7003;32029;51.358;5.628;2024-02-16T02:06:02;6.00;6.00;5.20
46302;PMS7003;32029;51.358;5.628;2024-02-16T02:08:30;9.20;7.60;6.20
46302;PMS7003;32029;51.358;5.628;2024-02-16T02:10:58;6.00;5.00;4.00
46302;PMS7003;32029;51.358;5.628;2024-02-16T02:13:25;9.67;7.00;5.00
46302;PMS7003;32029;51.358;5.628;2024-02-16T02:15:53;6.00;5.00;4.60
46302;PMS7003;32029;51.358;5.628;2024-02-16T02:18:21;6.00;6.00;5.00
46302;PMS7003;32029;51.358;5.628;2024-02-16T02:20:49;5.80;5.80;5.20
46302;PMS7003;32029;51.358;5.628;2024-02-16T02:23:17;8.20;5.00;4.00
46302;PMS7003;32029;51.358;5.628;2024-02-16T02:25:45;6.40;6.40;5.00
46302;PMS7003;32029;51.358;5.628;2024-02-16T02:28:11;7.00;4.00;4.00
46302;PMS7003;32029;51.358;5.628;2024-02-16T02:30:39;8.40;6.60;6.40
46302;PMS7003;32029;51.358;5.628;2024-02-16T02:33:07;7.20;7.20;5.60
46302;PMS7003;32029;51.358;5.628;2024-02-16T02:35:36;7.60;7.60;6.20
46302;PMS7003;32029;51.358;5.628;2024-02-16T02:38:03;9.00;5.00;4.33
46302;PMS7003;32029;51.358;5.628;2024-02-16T02:40:31;9.00;7.67;5.67
46302;PMS7003;32029;51.358;5.628;2024-02-16T02:42:59;6.60;5.00;5.00
46302;PMS7003;32029;51.358;5.628;2024-02-16T02:45:27;5.40;5.40;4.40
46302;PMS7003;32029;51.358;5.628;2024-02-16T02:47:54;6.00;6.00;5.00
46302;PMS7003;32029;51.358;5.628;2024-02-16T02:50:21;5.33;5.33;4.00
46302;PMS7003;32029;51.358;5.628;2024-02-16T02:52:49;10.20;8.60;5.80
46302;PMS7003;32029;51.358;5.628;2024-02-16T02:55:16;5.67;4.00;4.00
46302;PMS7003;32029;51.358;5.628;2024-02-16T02:57:44;5.40;5.40;4.20
46302;PMS7003;32029;51.358;5.628;2024-02-16T03:00:11;4.67;4.00;3.33
46302;PMS7003;32029;51.358;5.628;2024-02-16T03:02:39;6.00;5.00;4.60
46302;PMS7003;32029;51.358;5.628;2024-02-16T03:05:07;5.00;5.00;3.00
46302;PMS7003;32029;51.358;5.628;2024-02-16T03:07:35;6.00;6.00;4.80
46302;PMS7003;32029;51.358;5.628;2024-02-16T03:10:03;5.00;5.00;4.00
46302;PMS7003;32029;51.358;5.628;2024-02-16T03:12:32;7.40;5.00;4.40
46302;PMS7003;32029;51.358;5.628;2024-02-16T03:14:58;4.00;4.00;3.00
46302;PMS7003;32029;51.358;5.628;2024-02-16T03:17:25;9.00;6.00;4.00
46302;PMS7003;32029;51.358;5.628;2024-02-16T03:19:55;5.00;5.00;4.40
46302;PMS7003;32029;51.358;5.628;2024-02-16T03:22:21;4.67;4.33;4.00
46302;PMS7003;32029;51.358;5.628;2024-02-16T03:24:49;5.00;5.00;4.00
46302;PMS7003;32029;51.358;5.628;2024-02-16T03:27:17;5.00;5.00;4.80
46302;PMS7003;32029;51.358;5.628;2024-02-16T03:29:45;6.00;5.00;4.00
46302;PMS7003;32029;51.358;5.628;2024-02-16T03:32:12;5.00;5.00;4.00
46302;PMS7003;32029;51.358;5.628;2024-02-16T03:34:39;5.67;5.67;5.00
46302;PMS7003;32029;51.358;5.628;2024-02-16T03:37:07;7.40;4.80;4.00
46302;PMS7003;32029;51.358;5.628;2024-02-16T03:39:36;5.80;5.80;4.00
46302;PMS7003;32029;51.358;5.628;2024-02-16T03:42:03;5.67;5.67;5.00
46302;PMS7003;32029;51.358;5.628;2024-02-16T03:44:31;5.20;4.00;4.00
46302;PMS7003;32029;51.358;5.628;2024-02-16T03:46:58;4.67;3.33;3.00
46302;PMS7003;32029;51.358;5.628;2024-02-16T03:49:26;6.20;4.40;3.40
46302;PMS7003;32029;51.358;5.628;2024-02-16T03:51:56;6.00;6.00;4.00
46302;PMS7003;32029;51.358;5.628;2024-02-16T03:54:23;4.40;4.40;4.40
46302;PMS7003;32029;51.358;5.628;2024-02-16T03:56:54;5.40;5.40;5.00
46302;PMS7003;32029;51.358;5.628;2024-02-16T03:59:22;6.00;3.67;3.33
46302;PMS7003;32029;51.358;5.628;2024-02-16T04:01:51;5.40;4.00;3.40
46302;PMS7003;32029;51.358;5.628;2024-02-16T04:04:19;5.00;5.00;5.00
46302;PMS7003;32029;51.358;5.628;2024-02-16T04:06:46;5.00;5.00;3.00
46302;PMS7003;32029;51.358;5.628;2024-02-16T04:09:14;5.00;5.00;4.00
46302;PMS7003;32029;51.358;5.628;2024-02-16T04:11:43;5.00;5.00;4.20
46302;PMS7003;32029;51.358;5.628;2024-02-16T04:14:11;9.00;7.00;5.00
46302;PMS7003;32029;51.358;5.628;2024-02-16T04:16:38;5.33;5.33;4.00
46302;PMS7003;32029;51.358;5.628;2024-02-16T04:19:06;5.40;5.20;4.80
46302;PMS7003;32029;51.358;5.628;2024-02-16T04:21:34;10.20;5.20;5.00
46302;PMS7003;32029;51.358;5.628;2024-02-16T04:24:02;5.40;5.40;4.00
46302;PMS7003;32029;51.358;5.628;2024-02-16T04:26:29;5.00;5.00;4.00
46302;PMS7003;32029;51.358;5.628;2024-02-16T04:31:34;5.00;5.00;4.00
46302;PMS7003;32029;51.358;5.628;2024-02-16T04:34:01;7.67;5.00;5.00
46302;PMS7003;32029;51.358;5.628;2024-02-16T04:36:28;6.33;5.00;4.67
46302;PMS7003;32029;51.358;5.628;2024-02-16T04:38:57;6.80;6.80;4.60
46302;PMS7003;32029;51.358;5.628;2024-02-16T04:41:24;3.33;3.33;2.33
46302;PMS7003;32029;51.358;5.628;2024-02-16T04:43:51;7.00;7.00;5.00
46302;PMS7003;32029;51.358;5.628;2024-02-16T04:46:21;5.75;4.00;4.00
46302;PMS7003;32029;51.358;5.628;2024-02-16T04:48:48;9.00;6.67;4.67
46302;PMS7003;32029;51.358;5.628;2024-02-16T04:51:15;4.60;4.60;4.00
46302;PMS7003;32029;51.358;5.628;2024-02-16T04:53:42;5.00;5.00;4.00
46302;PMS7003;32029;51.358;5.628;2024-02-16T04:56:10;10.40;6.20;6.00
46302;PMS7003;32029;51.358;5.628;2024-02-16T04:58:41;6.80;4.20;3.00
46302;PMS7003;32029;51.358;5.628;2024-02-16T05:01:09;4.60;4.60;3.80
46302;PMS7003;32029;51.358;5.628;2024-02-16T05:03:37;6.00;6.00;4.40
46302;PMS7003;32029;51.358;5.628;2024-02-16T05:06:07;5.40;5.00;4.60
46302;PMS7003;32029;51.358;5.628;2024-02-16T05:08:35;5.00;5.00;4.60
46302;PMS7003;32029;51.358;5.628;2024-02-16T05:11:05;9.00;7.00;5.00
46302;PMS7003;32029;51.358;5.628;2024-02-16T05:13:35;4.33;4.33;4.00
46302;PMS7003;32029;51.358;5.628;2024-02-16T05:16:07;6.67;6.00;5.00
46302;PMS7003;32029;51.358;5.628;2024-02-16T05:18:34;5.00;5.00;4.00
46302;PMS7003;32029;51.358;5.628;2024-02-16T05:21:01;6.00;6.00;5.33
46302;PMS7003;32029;51.358;5.628;2024-02-16T05:23:28;5.33;5.33;5.00
46302;PMS7003;32029;51.358;5.628;2024-02-16T05:25:56;8.60;7.00;5.00
46302;PMS7003;32029;51.358;5.628;2024-02-16T05:28:24;9.00;5.60;4.00
46302;PMS7003;32029;51.358;5.628;2024-02-16T05:30:51;4.33;4.33;4.00
46302;PMS7003;32029;51.358;5.628;2024-02-16T05:33:18;5.20;4.20;3.80
46302;PMS7003;32029;51.358;5.628;2024-02-16T05:35:47;6.00;5.80;4.20
46302;PMS7003;32029;51.358;5.628;2024-02-16T05:38:28;8.20;6.00;5.00
46302;PMS7003;32029;51.358;5.628;2024-02-16T05:40:59;6.40;6.40;5.20
46302;PMS7003;32029;51.358;5.628;2024-02-16T05:43:27;5.40;5.40;4.40
46302;PMS7003;32029;51.358;5.628;2024-02-16T05:45:55;7.00;6.00;5.40
46302;PMS7003;32029;51.358;5.628;2024-02-16T05:48:23;6.40;6.40;5.00
46302;PMS7003;32029;51.358;5.628;2024-02-16T05:50:52;5.80;5.80;4.60
46302;PMS7003;32029;51.358;5.628;2024-02-16T05:53:20;4.20;4.20;3.40
46302;PMS7003;32029;51.358;5.628;2024-02-16T05:55:48;6.80;5.60;4.80
46302;PMS7003;32029;51.358;5.628;2024-02-16T05:58:15;5.00;5.00;3.00
46302;PMS7003;32029;51.358;5.628;2024-02-16T06:00:43;6.00;5.00;5.00
46302;PMS7003;32029;51.358;5.628;2024-02-16T06:03:10;4.00;4.00;3.00
46302;PMS7003;32029;51.358;5.628;2024-02-16T06:05:38;5.20;5.00;4.20
46302;PMS7003;32029;51.358;5.628;2024-02-16T06:08:07;8.00;6.00;5.00
46302;PMS7003;32029;51.358;5.628;2024-02-16T06:10:35;5.60;4.00;3.00
46302;PMS7003;32029;51.358;5.628;2024-02-16T06:13:01;6.00;4.00;4.00
46302;PMS7003;32029;51.358;5.628;2024-02-16T06:15:29;5.60;4.00;4.00
46302;PMS7003;32029;51.358;5.628;2024-02-16T06:17:56;5.00;4.00;3.33
46302;PMS7003;32029;51.358;5.628;2024-02-16T06:20:24;6.00;5.80;5.00
46302;PMS7003;32029;51.358;5.628;2024-02-16T06:22:51;5.60;5.40;5.00
46302;PMS7003;32029;51.358;5.628;2024-02-16T06:25:19;5.60;5.60;4.80
46302;PMS7003;32029;51.358;5.628;2024-02-16T06:27:46;5.33;5.33;5.00
46302;PMS7003;32029;51.358;5.628;2024-02-16T06:30:14;5.40;5.40;4.80
46302;PMS7003;32029;51.358;5.628;2024-02-16T06:32:41;8.67;6.33;5.00
46302;PMS7003;32029;51.358;5.628;2024-02-16T06:35:09;5.20;5.20;4.40
46302;PMS7003;32029;51.358;5.628;2024-02-16T06:37:37;6.00;5.00;4.00
46302;PMS7003;32029;51.358;5.628;2024-02-16T06:40:06;4.00;4.00;4.00
46302;PMS7003;32029;51.358;5.628;2024-02-16T06:42:38;8.60;6.00;5.00
46302;PMS7003;32029;51.358;5.628;2024-02-16T06:45:05;4.00;2.00;2.00
46302;PMS7003;32029;51.358;5.628;2024-02-16T06:47:33;5.00;5.00;4.00
46302;PMS7003;32029;51.358;5.628;2024-02-16T06:50:01;6.60;5.00;3.80
46302;PMS7003;32029;51.358;5.628;2024-02-16T06:52:29;5.00;5.00;4.00
46302;PMS7003;32029;51.358;5.628;2024-02-16T06:54:57;5.80;5.80;4.80
46302;PMS7003;32029;51.358;5.628;2024-02-16T06:57:23;7.00;5.00;5.00
46302;PMS7003;32029;51.358;5.628;2024-02-16T06:59:51;8.00;5.33;5.00
46302;PMS7003;32029;51.358;5.628;2024-02-16T07:02:20;6.00;6.00;4.00
46302;PMS7003;32029;51.358;5.628;2024-02-16T07:04:49;4.00;3.80;3.40
46302;PMS7003;32029;51.358;5.628;2024-02-16T07:07:17;5.80;4.80;4.00
46302;PMS7003;32029;51.358;5.628;2024-02-16T07:09:45;5.00;5.00;4.00
46302;PMS7003;32029;51.358;5.628;2024-02-16T07:12:13;7.00;4.20;3.80
46302;PMS7003;32029;51.358;5.628;2024-02-16T07:14:40;6.00;6.00;4.00
46302;PMS7003;32029;51.358;5.628;2024-02-16T07:17:08;6.20;5.80;5.00
46302;PMS7003;32029;51.358;5.628;2024-02-16T07:19:37;7.00;5.60;4.00
46302;PMS7003;32029;51.358;5.628;2024-02-16T07:22:03;7.33;5.00;3.33
46302;PMS7003;32029;51.358;5.628;2024-02-16T07:24:33;6.60;5.60;4.60
46302;PMS7003;32029;51.358;5.628;2024-02-16T07:27:00;4.00;4.00;3.67
46302;PMS7003;32029;51.358;5.628;2024-02-16T07:29:29;8.20;4.80;4.20
46302;PMS7003;32029;51.358;5.628;2024-02-16T07:31:57;5.80;5.60;4.40
46302;PMS7003;32029;51.358;5.628;2024-02-16T07:34:23;8.33;6.67;5.67
46302;PMS7003;32029;51.358;5.628;2024-02-16T07:36:50;7.33;6.67;5.00
46302;PMS7003;32029;51.358;5.628;2024-02-16T07:39:19;7.00;6.60;5.00
46302;PMS7003;32029;51.358;5.628;2024-02-16T07:41:50;6.80;6.20;4.40
46302;PMS7003;32029;51.358;5.628;2024-02-16T07:44:17;7.00;5.60;5.00
46302;PMS7003;32029;51.358;5.628;2024-02-16T07:46:44;6.00;6.00;5.00
46302;PMS7003;32029;51.358;5.628;2024-02-16T07:49:13;5.60;5.00;4.00
46302;PMS7003;32029;51.358;5.628;2024-02-16T07:51:41;6.60;6.60;5.00
46302;PMS7003;32029;51.358;5.628;2024-02-16T07:54:07;9.00;6.00;4.00
46302;PMS7003;32029;51.358;5.628;2024-02-16T07:56:35;6.60;5.60;4.40
46302;PMS7003;32029;51.358;5.628;2024-02-16T07:59:03;4.60;4.60;4.00
46302;PMS7003;32029;51.358;5.628;2024-02-16T08:01:31;5.40;5.40;5.00
46302;PMS7003;32029;51.358;5.628;2024-02-16T08:03:58;4.00;4.00;2.00
46302;PMS7003;32029;51.358;5.628;2024-02-16T08:06:26;7.60;5.00;4.00
46302;PMS7003;32029;51.358;5.628;2024-02-16T08:08:54;7.80;7.00;6.00
46302;PMS7003;32029;51.358;5.628;2024-02-16T08:11:22;5.80;5.80;4.00
46302;PMS7003;32029;51.358;5.628;2024-02-16T08:13:50;9.60;7.60;6.20
46302;PMS7003;32029;51.358;5.628;2024-02-16T08:16:18;7.00;5.60;5.00
46302;PMS7003;32029;51.358;5.628;2024-02-16T08:18:46;7.80;5.80;4.00
46302;PMS7003;32029;51.358;5.628;2024-02-16T08:21:14;7.60;6.20;5.80
46302;PMS7003;32029;51.358;5.628;2024-02-16T08:23:42;10.40;7.00;6.00
46302;PMS7003;32029;51.358;5.628;2024-02-16T08:26:10;5.00;5.00;4.20
46302;PMS7003;32029;51.358;5.628;2024-02-16T08:28:38;8.00;6.40;5.40
46302;PMS7003;32029;51.358;5.628;2024-02-16T08:31:06;7.40;6.00;5.00
46302;PMS7003;32029;51.358;5.628;2024-02-16T08:33:34;6.00;6.00;4.60
46302;PMS7003;32029;51.358;5.628;2024-02-16T08:36:04;6.00;6.00;5.00
46302;PMS7003;32029;51.358;5.628;2024-02-16T08:38:36;6.80;6.00;5.00
46302;PMS7003;32029;51.358;5.628;2024-02-16T08:41:04;8.00;8.00;6.60
46302;PMS7003;32029;51.358;5.628;2024-02-16T08:43:32;8.20;6.00;5.60
46302;PMS7003;32029;51.358;5.628;2024-02-16T08:46:00;5.40;5.40;5.00
46302;PMS7003;32029;51.358;5.628;2024-02-16T08:48:27;6.20;6.20;5.00
46302;PMS7003;32029;51.358;5.628;2024-02-16T08:50:54;7.33;7.33;6.00
46302;PMS7003;32029;51.358;5.628;2024-02-16T08:53:22;5.20;5.20;4.00
46302;PMS7003;32029;51.358;5.628;2024-02-16T08:55:50;8.40;7.20;5.00
46302;PMS7003;32029;51.358;5.628;2024-02-16T08:58:17;5.33;5.00;4.00
46302;PMS7003;32029;51.358;5.628;2024-02-16T09:00:45;6.40;6.40;5.60
46302;PMS7003;32029;51.358;5.628;2024-02-16T09:03:13;5.20;5.20;4.00
46302;PMS7003;32029;51.358;5.628;2024-02-16T09:05:43;5.00;5.00;4.00
46302;PMS7003;32029;51.358;5.628;2024-02-16T09:08:12;8.60;7.20;5.80
46302;PMS7003;32029;51.358;5.628;2024-02-16T09:10:40;6.00;5.80;5.00
46302;PMS7003;32029;51.358;5.628;2024-02-16T09:13:08;8.40;7.00;5.60
46302;PMS7003;32029;51.358;5.628;2024-02-16T09:15:36;8.20;6.00;4.80
46302;PMS7003;32029;51.358;5.628;2024-02-16T09:18:05;5.00;5.00;4.00
46302;PMS7003;32029;51.358;5.628;2024-02-16T09:20:33;7.20;6.00;5.80
46302;PMS7003;32029;51.358;5.628;2024-02-16T09:23:01;4.20;4.20;3.40
46302;PMS7003;32029;51.358;5.628;2024-02-16T09:25:28;7.00;6.20;5.40
46302;PMS7003;32029;51.358;5.628;2024-02-16T09:27:56;6.00;6.00;4.60
46302;PMS7003;32029;51.358;5.628;2024-02-16T09:30:24;5.80;5.60;4.80
46302;PMS7003;32029;51.358;5.628;2024-02-16T09:32:53;9.00;7.40;5.60
46302;PMS7003;32029;51.358;5.628;2024-02-16T09:35:21;7.60;7.60;6.40
46302;PMS7003;32029;51.358;5.628;2024-02-16T09:37:47;6.00;3.33;2.33
46302;PMS7003;32029;51.358;5.628;2024-02-16T09:40:14;10.67;7.00;6.33
46302;PMS7003;32029;51.358;5.628;2024-02-16T09:42:42;9.00;7.00;5.00
46302;PMS7003;32029;51.358;5.628;2024-02-16T09:45:10;7.00;7.00;6.00
46302;PMS7003;32029;51.358;5.628;2024-02-16T09:47:45;7.80;7.00;6.20
46302;PMS7003;32029;51.358;5.628;2024-02-16T09:50:16;7.00;7.00;6.00
46302;PMS7003;32029;51.358;5.628;2024-02-16T09:52:48;6.20;5.20;4.40
46302;PMS7003;32029;51.358;5.628;2024-02-16T09:55:17;8.40;7.20;4.00
46302;PMS7003;32029;51.358;5.628;2024-02-16T09:57:45;7.00;7.00;5.60
46302;PMS7003;32029;51.358;5.628;2024-02-16T10:00:13;8.60;8.60;6.20
46302;PMS7003;32029;51.358;5.628;2024-02-16T10:02:45;5.60;5.60;4.00
46302;PMS7003;32029;51.358;5.628;2024-02-16T10:05:14;7.80;7.60;6.00
46302;PMS7003;32029;51.358;5.628;2024-02-16T10:07:46;5.60;5.40;5.00
46302;PMS7003;32029;51.358;5.628;2024-02-16T10:10:27;10.20;8.00;6.40
46302;PMS7003;32029;51.358;5.628;2024-02-16T10:13:02;10.00;9.00;5.00
46302;PMS7003;32029;51.358;5.628;2024-02-16T10:15:31;8.00;7.00;6.00
46302;PMS7003;32029;51.358;5.628;2024-02-16T10:18:00;8.60;6.80;5.60
46302;PMS7003;32029;51.358;5.628;2024-02-16T10:20:30;8.40;7.80;6.20
46302;PMS7003;32029;51.358;5.628;2024-02-16T10:23:02;12.60;8.00;7.00
46302;PMS7003;32029;51.358;5.628;2024-02-16T10:25:30;8.60;7.40;6.20
46302;PMS7003;32029;51.358;5.628;2024-02-16T10:27:58;7.60;6.80;5.00
46302;PMS7003;32029;51.358;5.628;2024-02-16T10:30:36;8.40;6.80;5.00
46302;PMS7003;32029;51.358;5.628;2024-02-16T10:33:06;8.80;6.60;4.00
46302;PMS7003;32029;51.358;5.628;2024-02-16T10:35:36;7.00;7.00;6.00
46302;PMS7003;32029;51.358;5.628;2024-02-16T10:38:05;8.40;8.40;6.80
46302;PMS7003;32029;51.358;5.628;2024-02-16T10:40:37;8.20;8.20;7.20
46302;PMS7003;32029;51.358;5.628;2024-02-16T10:43:08;9.80;9.80;7.60
46302;PMS7003;32029;51.358;5.628;2024-02-16T10:45:38;10.20;9.20;6.60
46302;PMS7003;32029;51.358;5.628;2024-02-16T10:48:06;12.00;12.00;9.67
46302;PMS7003;32029;51.358;5.628;2024-02-16T10:50:34;12.67;11.00;7.67
46302;PMS7003;32029;51.358;5.628;2024-02-16T10:53:13;13.33;10.00;8.33
46302;PMS7003;32029;51.358;5.628;2024-02-16T10:55:44;12.00;12.00;8.67
46302;PMS7003;32029;51.358;5.628;2024-02-16T10:58:12;13.67;12.00;10.00
46302;PMS7003;32029;51.358;5.628;2024-02-16T11:00:54;12.67;11.00;10.00
46302;PMS7003;32029;51.358;5.628;2024-02-16T11:03:24;14.00;13.00;8.33
46302;PMS7003;32029;51.358;5.628;2024-02-16T11:05:53;12.00;12.00;8.67
46302;PMS7003;32029;51.358;5.628;2024-02-16T11:08:20;12.67;12.00;10.00
46302;PMS7003;32029;51.358;5.628;2024-02-16T11:10:59;13.33;13.00;7.67
46302;PMS7003;32029;51.358;5.628;2024-02-16T11:13:32;12.00;12.00;9.00
46302;PMS7003;32029;51.358;5.628;2024-02-16T11:16:02;15.00;14.00;11.00
46302;PMS7003;32029;51.358;5.628;2024-02-16T11:18:30;15.33;14.67;11.33
46302;PMS7003;32029;51.358;5.628;2024-02-16T11:21:01;13.67;12.67;8.67
46302;PMS7003;32029;51.358;5.628;2024-02-16T11:23:31;15.33;12.33;10.33
46302;PMS7003;32029;51.358;5.628;2024-02-16T11:26:01;13.00;11.33;10.67
46302;PMS7003;32029;51.358;5.628;2024-02-16T11:28:33;15.33;14.33;10.33
46302;PMS7003;32029;51.358;5.628;2024-02-16T11:31:01;12.00;12.00;9.00
46302;PMS7003;32029;51.358;5.628;2024-02-16T11:33:29;22.00;15.50;10.00
46302;PMS7003;32029;51.358;5.628;2024-02-16T11:35:58;13.00;11.00;9.33
46302;PMS7003;32029;51.358;5.628;2024-02-16T11:38:26;17.00;14.00;10.00
46302;PMS7003;32029;51.358;5.628;2024-02-16T11:40:54;14.67;14.00;9.33
46302;PMS7003;32029;51.358;5.628;2024-02-16T11:43:21;14.33;13.67;10.00
46302;PMS7003;32029;51.358;5.628;2024-02-16T11:45:49;10.33;10.33;6.00
46302;PMS7003;32029;51.358;5.628;2024-02-16T11:48:21;21.33;17.00;11.67
46302;PMS7003;32029;51.358;5.628;2024-02-16T11:50:49;16.50;14.00;10.50
46302;PMS7003;32029;51.358;5.628;2024-02-16T11:53:24;16.00;13.00;12.00
46302;PMS7003;32029;51.358;5.628;2024-02-16T11:55:51;17.00;17.00;12.00
46302;PMS7003;32029;51.358;5.628;2024-02-16T11:58:18;21.00;19.67;13.67
46302;PMS7003;32029;51.358;5.628;2024-02-16T12:00:46;18.50;15.50;13.00
46302;PMS7003;32029;51.358;5.628;2024-02-16T12:03:24;19.00;17.67;12.00
46302;PMS7003;32029;51.358;5.628;2024-02-16T12:05:57;21.67;17.67;13.00
46302;PMS7003;32029;51.358;5.628;2024-02-16T12:08:32;15.00;14.33;13.00
46302;PMS7003;32029;51.358;5.628;2024-02-16T12:11:01;21.33;20.00;15.33
46302;PMS7003;32029;51.358;5.628;2024-02-16T12:13:29;24.00;20.33;14.33
46302;PMS7003;32029;51.358;5.628;2024-02-16T12:15:56;23.00;19.50;13.00
46302;PMS7003;32029;51.358;5.628;2024-02-16T12:18:25;24.00;16.67;13.00
46302;PMS7003;32029;51.358;5.628;2024-02-16T12:21:02;17.33;17.33;13.33
46302;PMS7003;32029;51.358;5.628;2024-02-16T12:23:32;22.00;20.00;15.00
46302;PMS7003;32029;51.358;5.628;2024-02-16T12:26:00;20.33;20.33;12.33
46302;PMS7003;32029;51.358;5.628;2024-02-16T12:28:28;17.33;16.33;13.33
46302;PMS7003;32029;51.358;5.628;2024-02-16T12:30:58;19.00;15.00;12.00
46302;PMS7003;32029;51.358;5.628;2024-02-16T12:33:26;21.50;17.50;13.00
46302;PMS7003;32029;51.358;5.628;2024-02-16T12:35:53;20.67;16.00;14.00
46302;PMS7003;32029;51.358;5.628;2024-02-16T12:38:20;15.67;14.67;6.33
46302;PMS7003;32029;51.358;5.628;2024-02-16T12:40:48;15.33;14.00;11.67
46302;PMS7003;32029;51.358;5.628;2024-02-16T12:43:15;17.33;17.33;13.67
46302;PMS7003;32029;51.358;5.628;2024-02-16T12:45:43;22.33;21.00;15.00
46302;PMS7003;32029;51.358;5.628;2024-02-16T12:48:10;18.67;17.67;13.00
46302;PMS7003;32029;51.358;5.628;2024-02-16T12:50:39;20.00;18.67;15.00
46302;PMS7003;32029;51.358;5.628;2024-02-16T12:53:08;24.50;19.50;13.50
46302;PMS7003;32029;51.358;5.628;2024-02-16T12:55:35;19.33;18.00;13.00
46302;PMS7003;32029;51.358;5.628;2024-02-16T12:58:03;23.00;18.00;13.67
46302;PMS7003;32029;51.358;5.628;2024-02-16T13:00:30;22.33;19.33;14.33
46302;PMS7003;32029;51.358;5.628;2024-02-16T13:02:58;23.33;21.33;13.67
46302;PMS7003;32029;51.358;5.628;2024-02-16T13:05:25;18.00;15.00;7.33
46302;PMS7003;32029;51.358;5.628;2024-02-16T13:07:52;22.67;21.67;15.00
46302;PMS7003;32029;51.358;5.628;2024-02-16T13:10:19;19.33;19.33;14.33
46302;PMS7003;32029;51.358;5.628;2024-02-16T13:12:47;22.00;21.00;14.00
46302;PMS7003;32029;51.358;5.628;2024-02-16T13:15:15;22.00;20.33;14.00
46302;PMS7003;32029;51.358;5.628;2024-02-16T13:17:42;27.67;21.67;14.67
46302;PMS7003;32029;51.358;5.628;2024-02-16T13:20:09;22.33;21.00;14.00
46302;PMS7003;32029;51.358;5.628;2024-02-16T13:22:36;21.67;21.67;15.00
46302;PMS7003;32029;51.358;5.628;2024-02-16T13:25:05;24.00;20.67;14.00
46302;PMS7003;32029;51.358;5.628;2024-02-16T13:27:33;26.00;20.25;15.25
46302;PMS7003;32029;51.358;5.628;2024-02-16T13:30:00;24.00;24.00;17.33
46302;PMS7003;32029;51.358;5.628;2024-02-16T13:32:27;24.33;23.33;16.00
46302;PMS7003;32029;51.358;5.628;2024-02-16T13:34:55;32.00;24.75;15.00
46302;PMS7003;32029;51.358;5.628;2024-02-16T13:37:24;21.00;21.00;15.67
46302;PMS7003;32029;51.358;5.628;2024-02-16T13:39:51;25.67;22.67;16.00
46302;PMS7003;32029;51.358;5.628;2024-02-16T13:42:18;23.67;23.00;16.67
46302;PMS7003;32029;51.358;5.628;2024-02-16T13:44:47;23.67;22.67;15.00
46302;PMS7003;32029;51.358;5.628;2024-02-16T13:47:14;23.33;22.33;17.00
46302;PMS7003;32029;51.358;5.628;2024-02-16T13:49:42;28.00;22.00;14.33
46302;PMS7003;32029;51.358;5.628;2024-02-16T13:52:09;16.50;16.50;12.00
46302;PMS7003;32029;51.358;5.628;2024-02-16T13:54:37;21.00;21.00;13.67
46302;PMS7003;32029;51.358;5.628;2024-02-16T13:57:04;21.00;18.33;12.67
46302;PMS7003;32029;51.358;5.628;2024-02-16T13:59:32;20.33;20.33;14.00
46302;PMS7003;32029;51.358;5.628;2024-02-16T14:02:00;19.00;18.00;13.67
46302;PMS7003;32029;51.358;5.628;2024-02-16T14:04:28;18.00;16.00;12.50
46302;PMS7003;32029;51.358;5.628;2024-02-16T14:06:55;20.00;17.67;13.00
46302;PMS7003;32029;51.358;5.628;2024-02-16T14:09:22;18.00;14.00;11.00
46302;PMS7003;32029;51.358;5.628;2024-02-16T14:11:50;16.00;14.67;12.00
46302;PMS7003;32029;51.358;5.628;2024-02-16T14:14:17;15.00;15.00;10.00
46302;PMS7003;32029;51.358;5.628;2024-02-16T14:16:44;15.00;14.67;11.00
46302;PMS7003;32029;51.358;5.628;2024-02-16T14:19:11;14.00;13.00;8.67
46302;PMS7003;32029;51.358;5.628;2024-02-16T14:21:38;13.33;12.33;10.67